sensor_id;sensor_type;location;lat;lon;timestamp;P1;P2;P0
77515;PMS5003;66627;29.424;-98.496;2023-03-14T00:01:08;4;3;
77515;PMS5003;66627;29.424;-98.496;2023-03-14T00:03:33;2;2;
77515;PMS5003;66627;29.424;-98.496;2023-03-14T00:06:01;1;1;
77515;PMS5003;66627;29.424;-98.496;2023-03-14T00:08:23;2;2;
77515;PMS5003;66627;29.424;-98.496;2023-03-14T00:10:49;1;1;
77515;PMS5003;66627;29.424;-98.496;2023-03-14T00:13:14;2;1;
77515;PMS5003;66627;29.424;-98.496;2023-03-14T00:15:39;2;0;
77515;PMS5003;66627;29.424;-98.496;2023-03-14T00:18:04;1;1;
77515;PMS5003;66627;29.424;-98.496;2023-03-14T00:20:29;2;2;
77515;PMS5003;66627;29.424;-98.496;2023-03-14T00:22:54;2;2;
77515;PMS5003;66627;29.424;-98.496;2023-03-14T00:25:20;2;2;
77515;PMS5003;66627;29.424;-98.496;2023-03-14T00:27:45;2;2;
77515;PMS5003;66627;29.424;-98.496;2023-03-14T00:30:10;1;1;
77515;PMS5003;66627;29.424;-98.496;2023-03-14T00:32:35;3;1;
77515;PMS5003;66627;29.424;-98.496;2023-03-14T00:35:00;2;1;
77515;PMS5003;66627;29.424;-98.496;2023-03-14T00:37:25;3;2;
77515;PMS5003;66627;29.424;-98.496;2023-03-14T00:39:51;0;0;
77515;PMS5003;66627;29.424;-98.496;2023-03-14T00:42:16;2;1;
77515;PMS5003;66627;29.424;-98.496;2023-03-14T00:44:41;0;0;
77515;PMS5003;66627;29.424;-98.496;2023-03-14T00:47:06;3;2;
77515;PMS5003;66627;29.424;-98.496;2023-03-14T00:49:31;3;2;
77515;PMS5003;66627;29.424;-98.496;2023-03-14T00:51:57;3;3;
77515;PMS5003;66627;29.424;-98.496;2023-03-14T00:54:22;3;3;
77515;PMS5003;66627;29.424;-98.496;2023-03-14T00:56:48;1;1;
77515;PMS5003;66627;29.424;-98.496;2023-03-14T00:59:13;1;1;
77515;PMS5003;66627;29.424;-98.496;2023-03-14T01:01:38;2;2;
77515;PMS5003;66627;29.424;-98.496;2023-03-14T01:04:03;3;2;
77515;PMS5003;66627;29.424;-98.496;2023-03-14T01:06:29;0;0;
77515;PMS5003;66627;29.424;-98.496;2023-03-14T01:08:54;2;2;
77515;PMS5003;66627;29.424;-98.496;2023-03-14T01:11:20;2;2;
77515;PMS5003;66627;29.424;-98.496;2023-03-14T01:13:44;2;2;
77515;PMS5003;66627;29.424;-98.496;2023-03-14T01:16:10;2;2;
77515;PMS5003;66627;29.424;-98.496;2023-03-14T01:18:34;3;2;
77515;PMS5003;66627;29.424;-98.496;2023-03-14T01:20:59;2;2;
77515;PMS5003;66627;29.424;-98.496;2023-03-14T01:23:24;2;2;
77515;PMS5003;66627;29.424;-98.496;2023-03-14T01:25:50;3;3;
77515;PMS5003;66627;29.424;-98.496;2023-03-14T01:28:15;2;2;
77515;PMS5003;66627;29.424;-98.496;2023-03-14T01:30:40;2;2;
77515;PMS5003;66627;29.424;-98.496;2023-03-14T01:33:05;1;1;
77515;PMS5003;66627;29.424;-98.496;2023-03-14T01:35:30;2;2;
77515;PMS5003;66627;29.424;-98.496;2023-03-14T01:37:56;1;1;
77515;PMS5003;66627;29.424;-98.496;2023-03-14T01:40:21;1;1;
77515;PMS5003;66627;29.424;-98.496;2023-03-14T01:42:47;2;2;
77515;PMS5003;66627;29.424;-98.496;2023-03-14T01:47:37;2;2;
77515;PMS5003;66627;29.424;-98.496;2023-03-14T01:50:03;1;0;
77515;PMS5003;66627;29.424;-98.496;2023-03-14T01:52:29;2;2;
77515;PMS5003;66627;29.424;-98.496;2023-03-14T01:54:53;2;2;
77515;PMS5003;66627;29.424;-98.496;2023-03-14T01:57:19;3;1;
77515;PMS5003;66627;29.424;-98.496;2023-03-14T01:59:44;3;3;
77515;PMS5003;66627;29.424;-98.496;2023-03-14T02:02:08;2;2;
77515;PMS5003;66627;29.424;-98.496;2023-03-14T02:04:33;3;3;
77515;PMS5003;66627;29.424;-98.496;2023-03-14T02:06:59;4;2;
77515;PMS5003;66627;29.424;-98.496;2023-03-14T02:09:23;3;2;
77515;PMS5003;66627;29.424;-98.496;2023-03-14T02:11:49;1;1;
77515;PMS5003;66627;29.424;-98.496;2023-03-14T02:14:16;4;3;
77515;PMS5003;66627;29.424;-98.496;2023-03-14T02:16:39;2;2;
77515;PMS5003;66627;29.424;-98.496;2023-03-14T02:19:04;1;1;
77515;PMS5003;66627;29.424;-98.496;2023-03-14T02:21:32;5;3;
77515;PMS5003;66627;29.424;-98.496;2023-03-14T02:23:58;2;2;
77515;PMS5003;66627;29.424;-98.496;2023-03-14T02:26:20;1;1;
77515;PMS5003;66627;29.424;-98.496;2023-03-14T02:28:45;2;2;
77515;PMS5003;66627;29.424;-98.496;2023-03-14T02:31:10;2;2;
77515;PMS5003;66627;29.424;-98.496;2023-03-14T02:33:35;2;2;
77515;PMS5003;66627;29.424;-98.496;2023-03-14T02:36:01;2;2;
77515;PMS5003;66627;29.424;-98.496;2023-03-14T02:38:27;2;2;
77515;PMS5003;66627;29.424;-98.496;2023-03-14T02:40:51;3;3;
77515;PMS5003;66627;29.424;-98.496;2023-03-14T02:43:16;3;3;
77515;PMS5003;66627;29.424;-98.496;2023-03-14T02:45:42;3;2;
77515;PMS5003;66627;29.424;-98.496;2023-03-14T02:48:09;3;3;
77515;PMS5003;66627;29.424;-98.496;2023-03-14T02:50:32;2;2;
77515;PMS5003;66627;29.424;-98.496;2023-03-14T02:52:57;1;1;
77515;PMS5003;66627;29.424;-98.496;2023-03-14T02:55:22;4;4;
77515;PMS5003;66627;29.424;-98.496;2023-03-14T02:57:47;2;2;
77515;PMS5003;66627;29.424;-98.496;2023-03-14T03:00:14;2;2;
77515;PMS5003;66627;29.424;-98.496;2023-03-14T03:02:38;1;1;
77515;PMS5003;66627;29.424;-98.496;2023-03-14T03:05:04;3;3;
77515;PMS5003;66627;29.424;-98.496;2023-03-14T03:07:29;4;3;
77515;PMS5003;66627;29.424;-98.496;2023-03-14T03:09:54;3;3;
77515;PMS5003;66627;29.424;-98.496;2023-03-14T03:12:19;3;3;
77515;PMS5003;66627;29.424;-98.496;2023-03-14T03:14:44;3;3;
77515;PMS5003;66627;29.424;-98.496;2023-03-14T03:17:10;3;3;
77515;PMS5003;66627;29.424;-98.496;2023-03-14T03:19:34;3;3;
77515;PMS5003;66627;29.424;-98.496;2023-03-14T03:22:00;4;3;
77515;PMS5003;66627;29.424;-98.496;2023-03-14T03:24:25;3;3;
77515;PMS5003;66627;29.424;-98.496;2023-03-14T03:26:50;6;4;
77515;PMS5003;66627;29.424;-98.496;2023-03-14T03:29:15;3;3;
77515;PMS5003;66627;29.424;-98.496;2023-03-14T03:31:41;4;4;
77515;PMS5003;66627;29.424;-98.496;2023-03-14T03:34:06;3;2;
77515;PMS5003;66627;29.424;-98.496;2023-03-14T03:36:36;3;3;
77515;PMS5003;66627;29.424;-98.496;2023-03-14T03:38:56;2;2;
77515;PMS5003;66627;29.424;-98.496;2023-03-14T03:43:47;5;5;
77515;PMS5003;66627;29.424;-98.496;2023-03-14T03:46:12;3;3;
77515;PMS5003;66627;29.424;-98.496;2023-03-14T03:48:37;3;3;
77515;PMS5003;66627;29.424;-98.496;2023-03-14T03:51:03;3;3;
77515;PMS5003;66627;29.424;-98.496;2023-03-14T03:53:32;4;4;
77515;PMS5003;66627;29.424;-98.496;2023-03-14T03:55:53;3;3;
77515;PMS5003;66627;29.424;-98.496;2023-03-14T03:58:18;2;2;
77515;PMS5003;66627;29.424;-98.496;2023-03-14T04:00:43;3;3;
77515;PMS5003;66627;29.424;-98.496;2023-03-14T04:03:08;4;2;
77515;PMS5003;66627;29.424;-98.496;2023-03-14T04:05:33;2;1;
77515;PMS5003;66627;29.424;-98.496;2023-03-14T04:07:59;2;2;
77515;PMS5003;66627;29.424;-98.496;2023-03-14T04:10:24;5;3;
77515;PMS5003;66627;29.424;-98.496;2023-03-14T04:12:49;3;3;
77515;PMS5003;66627;29.424;-98.496;2023-03-14T04:17:39;2;2;
77515;PMS5003;66627;29.424;-98.496;2023-03-14T04:20:05;2;2;
77515;PMS5003;66627;29.424;-98.496;2023-03-14T04:22:30;3;3;
77515;PMS5003;66627;29.424;-98.496;2023-03-14T04:24:55;3;3;
77515;PMS5003;66627;29.424;-98.496;2023-03-14T04:27:20;4;3;
77515;PMS5003;66627;29.424;-98.496;2023-03-14T04:29:45;1;1;
77515;PMS5003;66627;29.424;-98.496;2023-03-14T04:32:11;4;4;
77515;PMS5003;66627;29.424;-98.496;2023-03-14T04:34:37;3;3;
77515;PMS5003;66627;29.424;-98.496;2023-03-14T04:37:02;4;2;
77515;PMS5003;66627;29.424;-98.496;2023-03-14T04:39:26;4;4;
77515;PMS5003;66627;29.424;-98.496;2023-03-14T04:41:52;3;3;
77515;PMS5003;66627;29.424;-98.496;2023-03-14T04:44:17;6;5;
77515;PMS5003;66627;29.424;-98.496;2023-03-14T04:46:42;3;3;
77515;PMS5003;66627;29.424;-98.496;2023-03-14T04:49:07;4;2;
77515;PMS5003;66627;29.424;-98.496;2023-03-14T04:51:33;3;3;
77515;PMS5003;66627;29.424;-98.496;2023-03-14T04:53:59;4;4;
77515;PMS5003;66627;29.424;-98.496;2023-03-14T04:56:23;4;4;
77515;PMS5003;66627;29.424;-98.496;2023-03-14T04:58:49;5;5;
77515;PMS5003;66627;29.424;-98.496;2023-03-14T05:01:14;6;3;
77515;PMS5003;66627;29.424;-98.496;2023-03-14T05:03:39;7;7;
77515;PMS5003;66627;29.424;-98.496;2023-03-14T05:06:05;5;5;
77515;PMS5003;66627;29.424;-98.496;2023-03-14T05:08:30;3;3;
77515;PMS5003;66627;29.424;-98.496;2023-03-14T05:10:55;3;3;
77515;PMS5003;66627;29.424;-98.496;2023-03-14T05:13:20;6;4;
77515;PMS5003;66627;29.424;-98.496;2023-03-14T05:15:45;5;5;
77515;PMS5003;66627;29.424;-98.496;2023-03-14T05:18:11;4;4;
77515;PMS5003;66627;29.424;-98.496;2023-03-14T05:20:36;6;6;
77515;PMS5003;66627;29.424;-98.496;2023-03-14T05:23:01;4;4;
77515;PMS5003;66627;29.424;-98.496;2023-03-14T05:25:26;3;3;
77515;PMS5003;66627;29.424;-98.496;2023-03-14T05:27:53;4;4;
77515;PMS5003;66627;29.424;-98.496;2023-03-14T05:30:18;3;3;
77515;PMS5003;66627;29.424;-98.496;2023-03-14T05:32:42;3;3;
77515;PMS5003;66627;29.424;-98.496;2023-03-14T05:35:07;4;4;
77515;PMS5003;66627;29.424;-98.496;2023-03-14T05:37:33;5;5;
77515;PMS5003;66627;29.424;-98.496;2023-03-14T05:39:58;3;3;
77515;PMS5003;66627;29.424;-98.496;2023-03-14T05:42:23;5;5;
77515;PMS5003;66627;29.424;-98.496;2023-03-14T05:44:48;5;5;
77515;PMS5003;66627;29.424;-98.496;2023-03-14T05:47:14;4;4;
77515;PMS5003;66627;29.424;-98.496;2023-03-14T05:49:39;4;4;
77515;PMS5003;66627;29.424;-98.496;2023-03-14T05:52:04;6;6;
77515;PMS5003;66627;29.424;-98.496;2023-03-14T05:54:30;3;3;
77515;PMS5003;66627;29.424;-98.496;2023-03-14T05:56:55;4;3;
77515;PMS5003;66627;29.424;-98.496;2023-03-14T05:59:20;3;3;
77515;PMS5003;66627;29.424;-98.496;2023-03-14T06:01:45;6;3;
77515;PMS5003;66627;29.424;-98.496;2023-03-14T06:04:11;3;3;
77515;PMS5003;66627;29.424;-98.496;2023-03-14T06:06:36;3;3;
77515;PMS5003;66627;29.424;-98.496;2023-03-14T06:09:01;7;7;
77515;PMS5003;66627;29.424;-98.496;2023-03-14T06:11:27;6;6;
77515;PMS5003;66627;29.424;-98.496;2023-03-14T06:13:52;5;5;
77515;PMS5003;66627;29.424;-98.496;2023-03-14T06:16:17;5;5;
77515;PMS5003;66627;29.424;-98.496;2023-03-14T06:18:43;4;4;
77515;PMS5003;66627;29.424;-98.496;2023-03-14T06:21:08;19;18;
77515;PMS5003;66627;29.424;-98.496;2023-03-14T06:23:33;13;11;
77515;PMS5003;66627;29.424;-98.496;2023-03-14T06:25:59;17;14;
77515;PMS5003;66627;29.424;-98.496;2023-03-14T06:28:24;18;16;
77515;PMS5003;66627;29.424;-98.496;2023-03-14T06:30:50;14;12;
77515;PMS5003;66627;29.424;-98.496;2023-03-14T06:33:15;16;14;
77515;PMS5003;66627;29.424;-98.496;2023-03-14T06:35:41;18;11;
77515;PMS5003;66627;29.424;-98.496;2023-03-14T06:38:06;14;10;
77515;PMS5003;66627;29.424;-98.496;2023-03-14T06:40:32;7;7;
77515;PMS5003;66627;29.424;-98.496;2023-03-14T06:42:57;6;6;
77515;PMS5003;66627;29.424;-98.496;2023-03-14T06:45:22;9;8;
77515;PMS5003;66627;29.424;-98.496;2023-03-14T06:47:48;5;5;
77515;PMS5003;66627;29.424;-98.496;2023-03-14T06:50:13;5;4;
77515;PMS5003;66627;29.424;-98.496;2023-03-14T06:52:38;3;3;
77515;PMS5003;66627;29.424;-98.496;2023-03-14T06:55:04;6;5;
77515;PMS5003;66627;29.424;-98.496;2023-03-14T06:57:30;3;3;
77515;PMS5003;66627;29.424;-98.496;2023-03-14T06:59:54;5;4;
77515;PMS5003;66627;29.424;-98.496;2023-03-14T07:02:22;5;5;
77515;PMS5003;66627;29.424;-98.496;2023-03-14T07:04:45;6;6;
77515;PMS5003;66627;29.424;-98.496;2023-03-14T07:07:10;5;4;
77515;PMS5003;66627;29.424;-98.496;2023-03-14T07:09:35;4;4;
77515;PMS5003;66627;29.424;-98.496;2023-03-14T07:12:01;5;5;
77515;PMS5003;66627;29.424;-98.496;2023-03-14T07:14:26;5;5;
77515;PMS5003;66627;29.424;-98.496;2023-03-14T07:16:51;5;5;
77515;PMS5003;66627;29.424;-98.496;2023-03-14T07:19:16;4;4;
77515;PMS5003;66627;29.424;-98.496;2023-03-14T07:21:42;5;5;
77515;PMS5003;66627;29.424;-98.496;2023-03-14T07:24:07;5;4;
77515;PMS5003;66627;29.424;-98.496;2023-03-14T07:26:32;5;5;
77515;PMS5003;66627;29.424;-98.496;2023-03-14T07:28:57;8;8;
77515;PMS5003;66627;29.424;-98.496;2023-03-14T07:31:23;7;7;
77515;PMS5003;66627;29.424;-98.496;2023-03-14T07:33:48;6;6;
77515;PMS5003;66627;29.424;-98.496;2023-03-14T07:36:13;8;8;
77515;PMS5003;66627;29.424;-98.496;2023-03-14T07:38:38;5;5;
77515;PMS5003;66627;29.424;-98.496;2023-03-14T07:41:05;6;6;
77515;PMS5003;66627;29.424;-98.496;2023-03-14T07:43:29;7;7;
77515;PMS5003;66627;29.424;-98.496;2023-03-14T07:45:54;10;10;
77515;PMS5003;66627;29.424;-98.496;2023-03-14T07:48:19;11;8;
77515;PMS5003;66627;29.424;-98.496;2023-03-14T07:50:48;9;8;
77515;PMS5003;66627;29.424;-98.496;2023-03-14T07:53:10;12;10;
77515;PMS5003;66627;29.424;-98.496;2023-03-14T07:55:35;6;6;
77515;PMS5003;66627;29.424;-98.496;2023-03-14T07:58:01;6;6;
77515;PMS5003;66627;29.424;-98.496;2023-03-14T08:00:26;8;6;
77515;PMS5003;66627;29.424;-98.496;2023-03-14T08:02:52;7;7;
77515;PMS5003;66627;29.424;-98.496;2023-03-14T08:05:17;6;6;
77515;PMS5003;66627;29.424;-98.496;2023-03-14T08:07:42;6;6;
77515;PMS5003;66627;29.424;-98.496;2023-03-14T08:10:08;7;6;
77515;PMS5003;66627;29.424;-98.496;2023-03-14T08:12:33;6;6;
77515;PMS5003;66627;29.424;-98.496;2023-03-14T08:14:58;6;6;
77515;PMS5003;66627;29.424;-98.496;2023-03-14T08:17:23;8;6;
77515;PMS5003;66627;29.424;-98.496;2023-03-14T08:19:48;7;6;
77515;PMS5003;66627;29.424;-98.496;2023-03-14T08:22:14;8;7;
77515;PMS5003;66627;29.424;-98.496;2023-03-14T08:24:39;5;5;
77515;PMS5003;66627;29.424;-98.496;2023-03-14T08:27:05;6;5;
77515;PMS5003;66627;29.424;-98.496;2023-03-14T08:29:30;4;4;
77515;PMS5003;66627;29.424;-98.496;2023-03-14T08:31:55;5;5;
77515;PMS5003;66627;29.424;-98.496;2023-03-14T08:34:21;5;5;
77515;PMS5003;66627;29.424;-98.496;2023-03-14T08:36:46;6;6;
77515;PMS5003;66627;29.424;-98.496;2023-03-14T08:39:11;6;6;
77515;PMS5003;66627;29.424;-98.496;2023-03-14T08:41:36;4;4;
77515;PMS5003;66627;29.424;-98.496;2023-03-14T08:44:02;4;4;
77515;PMS5003;66627;29.424;-98.496;2023-03-14T08:46:27;5;5;
77515;PMS5003;66627;29.424;-98.496;2023-03-14T08:48:52;4;4;
77515;PMS5003;66627;29.424;-98.496;2023-03-14T08:51:17;5;5;
77515;PMS5003;66627;29.424;-98.496;2023-03-14T08:53:43;5;5;
77515;PMS5003;66627;29.424;-98.496;2023-03-14T08:56:08;4;4;
77515;PMS5003;66627;29.424;-98.496;2023-03-14T08:58:33;4;4;
77515;PMS5003;66627;29.424;-98.496;2023-03-14T09:00:58;4;4;
77515;PMS5003;66627;29.424;-98.496;2023-03-14T09:03:24;4;4;
77515;PMS5003;66627;29.424;-98.496;2023-03-14T09:05:49;5;5;
77515;PMS5003;66627;29.424;-98.496;2023-03-14T09:08:14;3;3;
77515;PMS5003;66627;29.424;-98.496;2023-03-14T09:10:40;6;5;
77515;PMS5003;66627;29.424;-98.496;2023-03-14T09:13:05;4;4;
77515;PMS5003;66627;29.424;-98.496;2023-03-14T09:15:30;5;5;
77515;PMS5003;66627;29.424;-98.496;2023-03-14T09:17:55;3;3;
77515;PMS5003;66627;29.424;-98.496;2023-03-14T09:20:20;5;4;
77515;PMS5003;66627;29.424;-98.496;2023-03-14T09:22:46;4;3;
77515;PMS5003;66627;29.424;-98.496;2023-03-14T09:25:11;5;5;
77515;PMS5003;66627;29.424;-98.496;2023-03-14T09:27:36;5;4;
77515;PMS5003;66627;29.424;-98.496;2023-03-14T09:30:02;6;5;
77515;PMS5003;66627;29.424;-98.496;2023-03-14T09:32:27;3;3;
77515;PMS5003;66627;29.424;-98.496;2023-03-14T09:34:52;3;3;
77515;PMS5003;66627;29.424;-98.496;2023-03-14T09:37:17;2;2;
77515;PMS5003;66627;29.424;-98.496;2023-03-14T09:39:42;6;5;
77515;PMS5003;66627;29.424;-98.496;2023-03-14T09:44:34;7;5;
77515;PMS5003;66627;29.424;-98.496;2023-03-14T09:47:00;4;4;
77515;PMS5003;66627;29.424;-98.496;2023-03-14T09:49:24;5;5;
77515;PMS5003;66627;29.424;-98.496;2023-03-14T09:51:50;3;3;
77515;PMS5003;66627;29.424;-98.496;2023-03-14T09:54:17;4;4;
77515;PMS5003;66627;29.424;-98.496;2023-03-14T09:56:40;3;3;
77515;PMS5003;66627;29.424;-98.496;2023-03-14T09:59:05;3;3;
77515;PMS5003;66627;29.424;-98.496;2023-03-14T10:01:30;4;4;
77515;PMS5003;66627;29.424;-98.496;2023-03-14T10:03:57;3;3;
77515;PMS5003;66627;29.424;-98.496;2023-03-14T10:06:21;5;4;
77515;PMS5003;66627;29.424;-98.496;2023-03-14T10:08:46;4;4;
77515;PMS5003;66627;29.424;-98.496;2023-03-14T10:11:13;3;3;
77515;PMS5003;66627;29.424;-98.496;2023-03-14T10:13:36;3;3;
77515;PMS5003;66627;29.424;-98.496;2023-03-14T10:16:02;6;5;
77515;PMS5003;66627;29.424;-98.496;2023-03-14T10:18:28;6;6;
77515;PMS5003;66627;29.424;-98.496;2023-03-14T10:23:24;6;6;
77515;PMS5003;66627;29.424;-98.496;2023-03-14T10:25:43;6;5;
77515;PMS5003;66627;29.424;-98.496;2023-03-14T10:28:10;5;5;
77515;PMS5003;66627;29.424;-98.496;2023-03-14T10:30:38;5;4;
77515;PMS5003;66627;29.424;-98.496;2023-03-14T10:32:59;6;6;
77515;PMS5003;66627;29.424;-98.496;2023-03-14T10:35:24;3;3;
77515;PMS5003;66627;29.424;-98.496;2023-03-14T10:37:51;4;4;
77515;PMS5003;66627;29.424;-98.496;2023-03-14T10:40:14;4;4;
77515;PMS5003;66627;29.424;-98.496;2023-03-14T10:42:40;5;5;
77515;PMS5003;66627;29.424;-98.496;2023-03-14T10:45:06;7;5;
77515;PMS5003;66627;29.424;-98.496;2023-03-14T10:47:30;3;3;
77515;PMS5003;66627;29.424;-98.496;2023-03-14T10:49:55;7;6;
77515;PMS5003;66627;29.424;-98.496;2023-03-14T10:52:21;5;5;
77515;PMS5003;66627;29.424;-98.496;2023-03-14T10:54:47;7;6;
77515;PMS5003;66627;29.424;-98.496;2023-03-14T10:57:11;5;5;
77515;PMS5003;66627;29.424;-98.496;2023-03-14T10:59:37;5;5;
77515;PMS5003;66627;29.424;-98.496;2023-03-14T11:02:03;7;7;
77515;PMS5003;66627;29.424;-98.496;2023-03-14T11:04:35;7;7;
77515;PMS5003;66627;29.424;-98.496;2023-03-14T11:06:55;6;6;
77515;PMS5003;66627;29.424;-98.496;2023-03-14T11:09:20;6;6;
77515;PMS5003;66627;29.424;-98.496;2023-03-14T11:11:44;10;8;
77515;PMS5003;66627;29.424;-98.496;2023-03-14T11:14:12;7;6;
77515;PMS5003;66627;29.424;-98.496;2023-03-14T11:16:37;6;6;
77515;PMS5003;66627;29.424;-98.496;2023-03-14T11:19:01;5;5;
77515;PMS5003;66627;29.424;-98.496;2023-03-14T11:21:25;7;7;
77515;PMS5003;66627;29.424;-98.496;2023-03-14T11:23:52;7;6;
77515;PMS5003;66627;29.424;-98.496;2023-03-14T11:26:20;9;8;
77515;PMS5003;66627;29.424;-98.496;2023-03-14T11:28:41;6;6;
77515;PMS5003;66627;29.424;-98.496;2023-03-14T11:31:09;9;9;
77515;PMS5003;66627;29.424;-98.496;2023-03-14T11:33:36;7;7;
77515;PMS5003;66627;29.424;-98.496;2023-03-14T11:35:59;9;9;
77515;PMS5003;66627;29.424;-98.496;2023-03-14T11:38:27;10;10;
77515;PMS5003;66627;29.424;-98.496;2023-03-14T11:40:47;10;9;
77515;PMS5003;66627;29.424;-98.496;2023-03-14T11:43:13;9;7;
77515;PMS5003;66627;29.424;-98.496;2023-03-14T11:45:38;9;9;
77515;PMS5003;66627;29.424;-98.496;2023-03-14T11:48:13;8;8;
77515;PMS5003;66627;29.424;-98.496;2023-03-14T11:50:28;14;14;
77515;PMS5003;66627;29.424;-98.496;2023-03-14T11:52:54;9;9;
77515;PMS5003;66627;29.424;-98.496;2023-03-14T11:55:21;13;11;
77515;PMS5003;66627;29.424;-98.496;2023-03-14T11:57:45;12;12;
77515;PMS5003;66627;29.424;-98.496;2023-03-14T12:00:14;12;11;
77515;PMS5003;66627;29.424;-98.496;2023-03-14T12:02:38;8;8;
77515;PMS5003;66627;29.424;-98.496;2023-03-14T12:07:27;9;9;
77515;PMS5003;66627;29.424;-98.496;2023-03-14T12:09:51;13;12;
77515;PMS5003;66627;29.424;-98.496;2023-03-14T12:12:18;13;13;
77515;PMS5003;66627;29.424;-98.496;2023-03-14T12:14:45;13;13;
77515;PMS5003;66627;29.424;-98.496;2023-03-14T12:17:07;14;13;
77515;PMS5003;66627;29.424;-98.496;2023-03-14T12:19:33;14;14;
77515;PMS5003;66627;29.424;-98.496;2023-03-14T12:21:58;13;12;
77515;PMS5003;66627;29.424;-98.496;2023-03-14T12:24:24;14;13;
77515;PMS5003;66627;29.424;-98.496;2023-03-14T12:29:15;14;14;
77515;PMS5003;66627;29.424;-98.496;2023-03-14T12:31:40;20;16;
77515;PMS5003;66627;29.424;-98.496;2023-03-14T12:34:10;18;15;
77515;PMS5003;66627;29.424;-98.496;2023-03-14T12:38:57;17;13;
77515;PMS5003;66627;29.424;-98.496;2023-03-14T12:41:20;18;17;
77515;PMS5003;66627;29.424;-98.496;2023-03-14T12:43:45;19;16;
77515;PMS5003;66627;29.424;-98.496;2023-03-14T12:48:37;16;14;
77515;PMS5003;66627;29.424;-98.496;2023-03-14T12:51:02;18;16;
77515;PMS5003;66627;29.424;-98.496;2023-03-14T12:55:53;19;18;
77515;PMS5003;66627;29.424;-98.496;2023-03-14T12:58:20;22;20;
77515;PMS5003;66627;29.424;-98.496;2023-03-14T13:00:44;19;19;
77515;PMS5003;66627;29.424;-98.496;2023-03-14T13:03:16;19;16;
77515;PMS5003;66627;29.424;-98.496;2023-03-14T13:05:34;18;18;
77515;PMS5003;66627;29.424;-98.496;2023-03-14T13:08:06;20;20;
77515;PMS5003;66627;29.424;-98.496;2023-03-14T13:10:26;21;18;
77515;PMS5003;66627;29.424;-98.496;2023-03-14T13:12:52;16;16;
77515;PMS5003;66627;29.424;-98.496;2023-03-14T13:15:19;21;18;
77515;PMS5003;66627;29.424;-98.496;2023-03-14T13:17:43;18;17;
77515;PMS5003;66627;29.424;-98.496;2023-03-14T13:20:11;21;21;
77515;PMS5003;66627;29.424;-98.496;2023-03-14T13:22:34;22;21;
77515;PMS5003;66627;29.424;-98.496;2023-03-14T13:25:00;21;18;
77515;PMS5003;66627;29.424;-98.496;2023-03-14T13:27:26;21;20;
77515;PMS5003;66627;29.424;-98.496;2023-03-14T13:29:51;16;16;
77515;PMS5003;66627;29.424;-98.496;2023-03-14T13:32:18;19;19;
77515;PMS5003;66627;29.424;-98.496;2023-03-14T13:34:41;22;19;
77515;PMS5003;66627;29.424;-98.496;2023-03-14T13:39:32;21;18;
77515;PMS5003;66627;29.424;-98.496;2023-03-14T13:41:59;24;21;
77515;PMS5003;66627;29.424;-98.496;2023-03-14T13:44:25;22;21;
77515;PMS5003;66627;29.424;-98.496;2023-03-14T13:46:49;22;21;
77515;PMS5003;66627;29.424;-98.496;2023-03-14T13:49:18;16;15;
77515;PMS5003;66627;29.424;-98.496;2023-03-14T13:51:40;19;17;
77515;PMS5003;66627;29.424;-98.496;2023-03-14T13:56:32;20;19;
77515;PMS5003;66627;29.424;-98.496;2023-03-14T13:58:57;24;19;
77515;PMS5003;66627;29.424;-98.496;2023-03-14T14:01:23;22;22;
77515;PMS5003;66627;29.424;-98.496;2023-03-14T14:03:49;23;22;
77515;PMS5003;66627;29.424;-98.496;2023-03-14T14:06:22;25;24;
77515;PMS5003;66627;29.424;-98.496;2023-03-14T14:08:40;18;18;
77515;PMS5003;66627;29.424;-98.496;2023-03-14T14:11:04;21;21;
77515;PMS5003;66627;29.424;-98.496;2023-03-14T14:13:30;23;23;
77515;PMS5003;66627;29.424;-98.496;2023-03-14T14:15:56;25;22;
77515;PMS5003;66627;29.424;-98.496;2023-03-14T14:18:22;24;23;
77515;PMS5003;66627;29.424;-98.496;2023-03-14T14:20:47;28;26;
77515;PMS5003;66627;29.424;-98.496;2023-03-14T14:23:13;25;25;
77515;PMS5003;66627;29.424;-98.496;2023-03-14T14:25:37;26;25;
77515;PMS5003;66627;29.424;-98.496;2023-03-14T14:30:29;17;17;
77515;PMS5003;66627;29.424;-98.496;2023-03-14T14:33:09;20;19;
77515;PMS5003;66627;29.424;-98.496;2023-03-14T14:35:22;21;19;
77515;PMS5003;66627;29.424;-98.496;2023-03-14T14:37:44;21;19;
77515;PMS5003;66627;29.424;-98.496;2023-03-14T14:40:15;21;20;
77515;PMS5003;66627;29.424;-98.496;2023-03-14T14:42:38;22;19;
77515;PMS5003;66627;29.424;-98.496;2023-03-14T14:45:02;17;16;
77515;PMS5003;66627;29.424;-98.496;2023-03-14T14:47:27;17;17;
77515;PMS5003;66627;29.424;-98.496;2023-03-14T14:49:52;18;18;
77515;PMS5003;66627;29.424;-98.496;2023-03-14T14:52:17;15;14;
77515;PMS5003;66627;29.424;-98.496;2023-03-14T14:54:43;13;12;
77515;PMS5003;66627;29.424;-98.496;2023-03-14T14:57:15;16;16;
77515;PMS5003;66627;29.424;-98.496;2023-03-14T14:59:40;19;17;
77515;PMS5003;66627;29.424;-98.496;2023-03-14T15:02:00;16;14;
77515;PMS5003;66627;29.424;-98.496;2023-03-14T15:04:25;18;18;
77515;PMS5003;66627;29.424;-98.496;2023-03-14T15:06:51;21;19;
77515;PMS5003;66627;29.424;-98.496;2023-03-14T15:09:17;18;18;
77515;PMS5003;66627;29.424;-98.496;2023-03-14T15:11:42;17;17;
77515;PMS5003;66627;29.424;-98.496;2023-03-14T15:14:08;22;22;
77515;PMS5003;66627;29.424;-98.496;2023-03-14T15:16:33;17;16;
77515;PMS5003;66627;29.424;-98.496;2023-03-14T15:18:59;25;23;
77515;PMS5003;66627;29.424;-98.496;2023-03-14T15:21:24;25;23;
77515;PMS5003;66627;29.424;-98.496;2023-03-14T15:23:49;22;21;
77515;PMS5003;66627;29.424;-98.496;2023-03-14T15:26:16;21;21;
77515;PMS5003;66627;29.424;-98.496;2023-03-14T15:28:41;25;25;
77515;PMS5003;66627;29.424;-98.496;2023-03-14T15:31:08;28;26;
77515;PMS5003;66627;29.424;-98.496;2023-03-14T15:33:31;27;23;
77515;PMS5003;66627;29.424;-98.496;2023-03-14T15:35:57;30;28;
77515;PMS5003;66627;29.424;-98.496;2023-03-14T15:38:22;30;30;
77515;PMS5003;66627;29.424;-98.496;2023-03-14T15:40:48;26;24;
77515;PMS5003;66627;29.424;-98.496;2023-03-14T15:43:13;27;25;
77515;PMS5003;66627;29.424;-98.496;2023-03-14T15:45:38;33;30;
77515;PMS5003;66627;29.424;-98.496;2023-03-14T15:48:04;30;27;
77515;PMS5003;66627;29.424;-98.496;2023-03-14T15:50:30;30;28;
77515;PMS5003;66627;29.424;-98.496;2023-03-14T15:52:55;34;31;
77515;PMS5003;66627;29.424;-98.496;2023-03-14T15:55:20;30;29;
77515;PMS5003;66627;29.424;-98.496;2023-03-14T15:57:46;29;26;
77515;PMS5003;66627;29.424;-98.496;2023-03-14T16:00:12;31;30;
77515;PMS5003;66627;29.424;-98.496;2023-03-14T16:02:36;29;29;
77515;PMS5003;66627;29.424;-98.496;2023-03-14T16:05:02;28;26;
77515;PMS5003;66627;29.424;-98.496;2023-03-14T16:07:27;30;28;
77515;PMS5003;66627;29.424;-98.496;2023-03-14T16:09:53;29;28;
77515;PMS5003;66627;29.424;-98.496;2023-03-14T16:12:19;26;26;
77515;PMS5003;66627;29.424;-98.496;2023-03-14T16:14:47;26;23;
77515;PMS5003;66627;29.424;-98.496;2023-03-14T16:17:09;31;29;
77515;PMS5003;66627;29.424;-98.496;2023-03-14T16:19:34;28;25;
77515;PMS5003;66627;29.424;-98.496;2023-03-14T16:22:00;37;33;
77515;PMS5003;66627;29.424;-98.496;2023-03-14T16:24:25;32;28;
77515;PMS5003;66627;29.424;-98.496;2023-03-14T16:26:51;27;27;